Time;durP1;ratioP1;P1;durP2;ratioP2;P2;SDS_P1;SDS_P2;PMS_P1;PMS_P2;Temp;Humidity;BMP_temperature;BMP_pressure;BME280_temperature;BME280_humidity;BME280_pressure;Samples;Min_cycle;Max_cycle;Signal;HPM_P1;HPM_P2
2023/01/16 00:01:16;;;;;;;15.00;9.48;;;;;;;1.66;76.93;99339.63;4909344;29;20507;-95
2023/01/16 00:03:42;;;;;;;15.63;9.52;;;;;;;1.92;76.58;99367.91;4910645;29;20052;-96
2023/01/16 00:06:07;;;;;;;14.20;9.15;;;;;;;1.82;76.94;99341.81;4910187;29;20066;-95
2023/01/16 00:08:33;;;;;;;14.48;8.25;;;;;;;1.86;76.74;99342.22;4910965;29;20113;-95
2023/01/16 00:10:59;;;;;;;21.88;9.02;;;;;;;1.84;77.01;99361.00;4909488;29;20019;-95
2023/01/16 00:13:24;;;;;;;13.68;7.90;;;;;;;1.60;77.12;99339.47;4910074;28;20104;-95
2023/01/16 00:15:51;;;;;;;13.68;7.63;;;;;;;1.63;77.01;99329.47;4929399;28;20023;-95
2023/01/16 00:18:16;;;;;;;15.98;7.82;;;;;;;1.81;77.42;99354.28;4927943;28;20169;-95
2023/01/16 00:20:42;;;;;;;16.95;8.52;;;;;;;1.55;77.73;99330.50;4928061;28;20441;-95
2023/01/16 00:23:08;;;;;;;13.85;8.35;;;;;;;1.59;77.37;99318.44;4928705;28;20535;-94
2023/01/16 00:25:35;;;;;;;13.32;7.75;;;;;;;1.68;77.75;99309.22;4928791;28;20027;-95
2023/01/16 00:28:00;;;;;;;12.60;7.72;;;;;;;1.94;77.38;99348.06;4928868;28;20033;-95
2023/01/16 00:30:26;;;;;;;12.25;6.93;;;;;;;1.81;77.76;99326.91;4928866;28;20109;-95
2023/01/16 00:32:51;;;;;;;11.55;7.30;;;;;;;1.95;77.62;99340.91;4929206;28;20030;-95
2023/01/16 00:35:17;;;;;;;13.27;7.22;;;;;;;1.93;77.70;99329.69;4927725;28;20031;-95
2023/01/16 00:37:42;;;;;;;13.20;7.45;;;;;;;2.02;77.43;99339.88;4927927;28;20050;-95
2023/01/16 00:40:08;;;;;;;13.85;7.65;;;;;;;1.87;77.48;99311.97;4928174;28;20011;-95
2023/01/16 00:42:34;;;;;;;10.40;6.43;;;;;;;1.82;76.92;99317.91;4944803;28;20502;-95
2023/01/16 00:44:59;;;;;;;18.23;6.40;;;;;;;1.89;76.13;99315.22;4928165;28;20509;-95
2023/01/16 00:47:28;;;;;;;14.40;7.32;;;;;;;1.77;76.17;99315.09;4927812;28;20382;-95
2023/01/16 00:49:53;;;;;;;13.95;7.38;;;;;;;1.75;75.58;99310.00;4929076;28;20023;-95
2023/01/16 00:52:23;;;;;;;13.10;7.10;;;;;;;1.79;76.29;99323.66;4945029;28;20029;-96
2023/01/16 00:54:48;;;;;;;14.07;7.43;;;;;;;1.61;76.51;99300.47;4927257;28;20026;-96
2023/01/16 00:57:14;;;;;;;15.65;8.23;;;;;;;1.59;76.99;99308.63;4928553;28;20504;-96
2023/01/16 00:59:39;;;;;;;13.23;7.55;;;;;;;1.60;76.54;99320.91;4927465;28;20023;-96
2023/01/16 01:02:05;;;;;;;16.02;7.20;;;;;;;1.68;76.11;99314.53;4928109;28;20122;-95
2023/01/16 01:04:30;;;;;;;11.18;6.85;;;;;;;1.59;76.63;99299.88;4927281;28;20022;-93
2023/01/16 01:06:56;;;;;;;15.38;7.68;;;;;;;1.82;76.65;99323.22;4927548;28;20026;-93
2023/01/16 01:09:21;;;;;;;13.88;8.18;;;;;;;1.60;76.76;99294.34;4928029;28;20026;-93
2023/01/16 01:11:47;;;;;;;10.85;6.60;;;;;;;1.63;76.42;99287.81;4945259;28;20026;-93
2023/01/16 01:14:13;;;;;;;13.90;7.28;;;;;;;1.63;76.88;99297.63;4951926;28;20057;-93
2023/01/16 01:16:40;;;;;;;11.52;7.55;;;;;;;1.53;77.03;99282.13;4954071;28;20033;-93
2023/01/16 01:19:05;;;;;;;12.45;7.10;;;;;;;1.51;77.37;99277.03;4953298;28;20018;-93
2023/01/16 01:21:31;;;;;;;10.05;6.32;;;;;;;1.44;77.69;99281.56;4952732;28;20037;-92
2023/01/16 01:23:56;;;;;;;10.88;6.82;;;;;;;1.60;76.79;99304.16;4952302;28;20029;-92
2023/01/16 01:26:22;;;;;;;12.85;7.40;;;;;;;1.38;77.25;99280.56;4968117;28;20480;-92
2023/01/16 01:28:47;;;;;;;9.85;6.72;;;;;;;1.41;76.44;99258.94;4968582;28;20022;-93
2023/01/16 01:31:13;;;;;;;12.52;6.28;;;;;;;1.32;77.55;99265.50;4952309;28;20030;-92
2023/01/16 01:33:39;;;;;;;8.50;5.05;;;;;;;1.42;77.56;99295.03;4952036;28;20018;-93
2023/01/16 01:36:05;;;;;;;9.63;5.15;;;;;;;1.46;77.15;99276.06;4952261;28;20041;-92
2023/01/16 01:38:30;;;;;;;11.70;6.20;;;;;;;1.45;77.83;99269.91;4952449;28;20015;-92
2023/01/16 01:40:56;;;;;;;10.02;6.35;;;;;;;1.36;77.63;99263.25;4948600;28;20026;-92
2023/01/16 01:43:21;;;;;;;8.77;5.32;;;;;;;1.26;77.79;99254.91;4933079;28;20031;-93
2023/01/16 01:45:50;;;;;;;12.98;5.65;;;;;;;1.48;77.41;99268.72;4932644;28;20029;-92
2023/01/16 01:48:21;;;;;;;9.25;5.78;;;;;;;1.58;77.49;99271.72;4932912;28;20082;-93
2023/01/16 01:51:00;;;;;;;9.20;5.95;;;;;;;1.51;77.93;99277.03;4933341;28;20026;-92
2023/01/16 01:53:37;;;;;;;7.75;5.47;;;;;;;1.48;77.76;99250.13;4948827;28;20062;-92
2023/01/16 01:56:10;;;;;;;9.02;5.65;;;;;;;1.63;77.39;99269.22;4939383;28;20457;-93
2023/01/16 01:58:35;;;;;;;10.20;5.93;;;;;;;1.68;77.15;99261.47;4953315;28;20118;-92
2023/01/16 02:01:01;;;;;;;13.68;6.30;;;;;;;1.70;77.27;99251.44;4951143;28;20034;-94
2023/01/16 02:03:35;;;;;;;11.75;6.82;;;;;;;1.76;77.35;99247.91;4952560;28;20030;-93
2023/01/16 02:06:03;;;;;;;10.82;5.50;;;;;;;1.73;77.41;99242.22;4952336;28;20030;-92
2023/01/16 02:08:30;;;;;;;9.38;5.93;;;;;;;1.76;77.63;99228.53;4952125;28;20471;-94
2023/01/16 02:11:28;;;;;;;9.30;5.38;;;;;;;1.68;76.78;99248.19;4952656;28;20026;-94
2023/01/16 02:13:58;;;;;;;10.52;5.70;;;;;;;1.59;77.31;99258.22;4955850;28;20054;-94
2023/01/16 02:19:18;;;;;;;10.18;5.10;;;;;;;1.48;76.45;99253.59;4973499;28;20041;-93
2023/01/16 02:22:11;;;;;;;9.93;5.75;;;;;;;1.58;77.37;99263.75;4950691;28;20022;-94
2023/01/16 02:25:00;;;;;;;11.85;5.53;;;;;;;1.67;77.00;99256.34;4950890;28;20030;-93
2023/01/16 02:27:44;;;;;;;17.60;5.88;;;;;;;1.72;76.36;99254.69;4964374;28;20057;-93
2023/01/16 02:30:43;;;;;;;11.38;5.22;;;;;;;1.76;76.86;99247.09;4979996;28;20019;-93
2023/01/16 02:33:34;;;;;;;9.52;5.50;;;;;;;1.64;76.81;99233.72;4980657;28;20041;-94
2023/01/16 02:36:15;;;;;;;10.30;5.82;;;;;;;1.45;77.36;99240.75;4963031;28;20045;-94
2023/01/16 02:38:43;;;;;;;15.25;6.10;;;;;;;1.52;77.08;99249.50;4950129;28;20033;-94
2023/01/16 02:41:52;;;;;;;12.00;6.32;;;;;;;1.46;77.35;99246.88;4973731;28;20030;-94
2023/01/16 02:44:27;;;;;;;11.25;6.63;;;;;;;1.37;76.94;99225.91;4925701;28;20031;-94
2023/01/16 02:47:14;;;;;;;11.98;6.75;;;;;;;1.36;77.25;99237.53;4925046;29;20579;-94
2023/01/16 02:49:53;;;;;;;14.15;6.68;;;;;;;1.29;77.83;99238.59;4930340;28;20043;-94
2023/01/16 02:52:42;;;;;;;11.25;6.05;;;;;;;1.31;77.14;99220.63;4945158;28;20417;-94
2023/01/16 02:55:29;;;;;;;11.48;5.75;;;;;;;1.48;77.26;99232.38;4947379;28;20022;-93
2023/01/16 02:57:57;;;;;;;10.90;5.95;;;;;;;1.42;77.33;99231.38;4928596;29;20042;-94
2023/01/16 03:00:23;;;;;;;10.27;6.07;;;;;;;1.57;77.38;99246.19;4911078;29;20114;-93
2023/01/16 03:02:48;;;;;;;12.82;6.07;;;;;;;1.44;77.60;99231.16;4926500;29;20031;-94
2023/01/16 03:05:14;;;;;;;9.07;5.60;;;;;;;1.40;77.57;99232.63;4910224;29;20027;-93
2023/01/16 03:07:59;;;;;;;9.00;5.53;;;;;;;1.52;77.40;99225.63;4925235;29;20027;-93
2023/01/16 03:10:49;;;;;;;9.40;5.47;;;;;;;1.46;77.01;99228.31;4926355;28;20023;-93
2023/01/16 03:13:59;;;;;;;10.52;6.03;;;;;;;1.54;76.86;99225.41;4960652;28;20382;-93
2023/01/16 03:16:45;;;;;;;9.38;5.38;;;;;;;1.44;76.86;99198.53;4960838;28;20461;-94
2023/01/16 03:19:22;;;;;;;10.73;5.88;;;;;;;1.46;77.09;99197.28;4946572;28;20077;-94
2023/01/16 03:21:52;;;;;;;11.88;5.93;;;;;;;1.61;77.29;99226.16;4945146;28;20070;-93
2023/01/16 03:24:33;;;;;;;11.27;6.03;;;;;;;1.70;76.72;99232.03;4944596;28;20030;-94
2023/01/16 03:27:06;;;;;;;15.80;6.82;;;;;;;1.67;77.54;99213.91;4960040;28;20029;-94
2023/01/16 03:29:37;;;;;;;12.73;7.35;;;;;;;1.54;76.59;99212.16;4929403;28;20497;-94
2023/01/16 03:32:26;;;;;;;12.00;6.63;;;;;;;1.35;76.25;99201.44;4929557;28;20520;-94
2023/01/16 03:35:17;;;;;;;10.73;6.05;;;;;;;1.45;76.37;99218.72;4949515;28;20498;-94
2023/01/16 03:37:50;;;;;;;11.55;6.70;;;;;;;1.21;77.27;99181.31;4944687;28;20023;-94
2023/01/16 03:40:24;;;;;;;11.20;6.60;;;;;;;1.34;77.26;99209.59;4928119;28;20151;-94
2023/01/16 03:42:53;;;;;;;11.88;6.82;;;;;;;1.31;76.96;99216.13;4928973;28;20031;-94
2023/01/16 03:45:48;;;;;;;12.93;7.03;;;;;;;1.14;76.94;99209.69;4959870;28;20035;-93
2023/01/16 03:48:18;;;;;;;16.27;7.43;;;;;;;1.10;76.91;99196.06;4958258;28;20038;-93
2023/01/16 03:50:47;;;;;;;16.52;7.88;;;;;;;1.18;77.24;99206.41;4928297;28;20023;-94
2023/01/16 03:53:13;;;;;;;12.55;7.40;;;;;;;1.18;75.92;99189.66;4929535;28;20092;-94
2023/01/16 03:55:56;;;;;;;14.27;6.85;;;;;;;1.23;76.25;99197.81;4929083;28;20054;-93
2023/01/16 03:58:31;;;;;;;15.50;7.30;;;;;;;1.06;76.63;99173.63;4929807;28;20533;-93
2023/01/16 04:01:15;;;;;;;12.05;6.50;;;;;;;1.13;76.79;99198.25;4934304;28;20026;-93
2023/01/16 04:03:44;;;;;;;14.80;7.82;;;;;;;0.98;77.13;99195.09;4978277;28;20030;-94
2023/01/16 04:06:23;;;;;;;23.17;9.20;;;;;;;0.86;77.24;99197.56;4931973;28;20108;-93
2023/01/16 04:08:49;;;;;;;12.98;7.97;;;;;;;0.84;76.96;99198.81;4947679;28;20022;-90
2023/01/16 04:11:15;;;;;;;16.77;10.02;;;;;;;0.90;76.59;99198.78;4963078;28;20018;-94
2023/01/16 04:13:40;;;;;;;13.38;7.88;;;;;;;0.97;76.89;99183.63;4947807;28;20027;-94
2023/01/16 04:16:10;;;;;;;13.73;7.65;;;;;;;0.87;77.55;99170.06;4947390;28;20034;-94
2023/01/16 04:18:36;;;;;;;15.88;8.02;;;;;;;1.03;78.11;99159.97;4962591;28;20022;-94
2023/01/16 04:21:05;;;;;;;11.15;6.93;;;;;;;1.07;78.23;99164.63;4946849;28;20034;-94
2023/01/16 04:23:31;;;;;;;16.15;8.68;;;;;;;1.06;77.90;99152.41;4946711;28;20140;-94
2023/01/16 04:25:56;;;;;;;14.27;6.90;;;;;;;0.98;77.62;99134.09;4946860;28;20444;-94
2023/01/16 04:28:21;;;;;;;13.65;7.55;;;;;;;1.27;77.68;99167.19;4961540;28;20057;-94
2023/01/16 04:30:47;;;;;;;19.75;9.30;;;;;;;1.25;77.67;99142.72;4946454;28;20061;-94
2023/01/16 04:33:13;;;;;;;26.42;11.77;;;;;;;1.34;77.46;99141.44;4963244;28;20413;-93
2023/01/16 04:35:38;;;;;;;15.15;7.78;;;;;;;1.35;76.33;99151.03;4962231;28;20022;-94
2023/01/16 04:38:04;;;;;;;14.82;7.78;;;;;;;1.37;76.29;99142.84;4945485;28;20018;-94
2023/01/16 04:40:29;;;;;;;12.48;7.28;;;;;;;1.30;75.52;99142.88;4962526;28;20022;-94
2023/01/16 04:42:55;;;;;;;13.48;6.60;;;;;;;1.36;75.37;99165.09;4946084;28;20026;-94
2023/01/16 04:45:21;;;;;;;14.07;7.63;;;;;;;1.29;75.63;99145.78;4936156;28;20029;-93
2023/01/16 04:47:47;;;;;;;24.30;9.38;;;;;;;1.30;76.01;99136.78;4957826;28;20030;-94
2023/01/16 04:50:15;;;;;;;13.65;7.80;;;;;;;1.53;75.78;99158.25;4927511;28;20019;-92
2023/01/16 04:52:41;;;;;;;20.27;9.50;;;;;;;1.52;76.23;99147.88;4939687;28;20046;-94
2023/01/16 04:55:08;;;;;;;24.48;9.23;;;;;;;1.53;76.43;99144.97;4928240;28;20050;-92
2023/01/16 04:57:33;;;;;;;14.70;7.97;;;;;;;1.46;77.13;99127.50;4930347;28;20023;-94
2023/01/16 04:59:59;;;;;;;15.02;7.97;;;;;;;1.30;76.47;99108.41;4929369;28;20489;-94
2023/01/16 05:02:24;;;;;;;18.83;8.73;;;;;;;1.32;76.26;99135.53;4931546;28;20122;-95
2023/01/16 05:04:50;;;;;;;22.35;9.18;;;;;;;1.16;76.29;99106.88;4925605;28;20050;-94
2023/01/16 05:07:15;;;;;;;17.20;9.07;;;;;;;1.24;75.70;99129.66;4926666;28;20022;-93
2023/01/16 05:09:41;;;;;;;15.13;8.48;;;;;;;1.06;75.66;99093.25;4927214;28;20038;-93
2023/01/16 05:12:06;;;;;;;18.70;9.68;;;;;;;0.99;75.64;99088.00;4928563;28;20130;-95
2023/01/16 05:14:32;;;;;;;20.20;9.70;;;;;;;0.90;76.40;99087.44;4933796;29;20047;-93
2023/01/16 05:16:58;;;;;;;12.32;7.95;;;;;;;1.10;75.84;99095.28;4922790;29;20387;-93
2023/01/16 05:19:23;;;;;;;14.73;8.20;;;;;;;1.29;75.96;99106.00;4908595;29;20490;-95
2023/01/16 05:21:49;;;;;;;14.88;8.88;;;;;;;1.11;76.05;99061.63;4908180;28;20032;-95
2023/01/16 05:24:14;;;;;;;15.57;8.93;;;;;;;1.35;76.65;99087.38;4944809;28;20054;-94
2023/01/16 05:26:40;;;;;;;15.80;9.38;;;;;;;1.42;77.37;99089.97;4913544;29;20030;-96
2023/01/16 05:29:05;;;;;;;16.83;8.85;;;;;;;1.39;77.26;99085.91;4912050;29;20498;-96
2023/01/16 05:31:31;;;;;;;13.82;9.63;;;;;;;1.36;77.17;99081.03;4910954;29;20023;-96
2023/01/16 05:33:56;;;;;;;13.18;8.43;;;;;;;1.50;76.82;99072.97;4907513;29;20063;-94
2023/01/16 05:36:25;;;;;;;23.52;11.82;;;;;;;1.51;76.59;99067.44;4909564;28;20031;-96
2023/01/16 05:38:50;;;;;;;16.25;8.23;;;;;;;1.51;76.35;99093.16;4908585;29;20023;-94
2023/01/16 05:41:16;;;;;;;15.80;8.82;;;;;;;1.42;75.77;99074.84;4900152;29;20024;-96
2023/01/16 05:43:42;;;;;;;17.25;8.52;;;;;;;1.53;75.38;99073.34;4922036;29;20063;-94
2023/01/16 05:46:22;;;;;;;15.20;9.60;;;;;;;1.72;75.58;99078.69;4924998;29;20028;-95
2023/01/16 05:48:48;;;;;;;16.80;10.18;;;;;;;1.78;76.38;99062.69;4910869;29;20110;-96
2023/01/16 05:51:15;;;;;;;23.90;10.75;;;;;;;1.84;75.26;99086.75;4911278;29;20493;-96
2023/01/16 05:54:27;;;;;;;19.60;11.88;;;;;;;1.67;75.57;99067.94;4909215;29;20034;-96
2023/01/16 05:56:54;;;;;;;20.73;11.55;;;;;;;1.57;75.42;99069.22;4925637;29;20020;-96
2023/01/16 05:59:22;;;;;;;19.65;11.40;;;;;;;1.60;76.41;99079.41;4914649;29;20034;-96
2023/01/16 06:01:48;;;;;;;23.40;12.13;;;;;;;1.59;75.59;99085.75;4913569;29;20020;-96
2023/01/16 06:04:14;;;;;;;17.05;10.50;;;;;;;1.77;74.87;99092.94;4912064;29;20031;-96
2023/01/16 06:06:40;;;;;;;30.23;11.40;;;;;;;1.94;74.56;99105.66;4928671;29;20030;-95
2023/01/16 06:09:08;;;;;;;48.78;21.63;;;;;;;1.93;74.41;99093.41;4914254;29;20016;-94
2023/01/16 06:11:34;;;;;;;26.38;11.85;;;;;;;1.99;73.78;99069.47;4897253;29;20474;-94
2023/01/16 06:14:03;;;;;;;24.55;13.23;;;;;;;2.11;73.15;99085.47;4917915;28;20043;-93
2023/01/16 06:16:29;;;;;;;23.92;11.48;;;;;;;2.21;72.88;99082.31;4943118;29;20031;-94
2023/01/16 06:18:54;;;;;;;32.92;13.68;;;;;;;2.32;72.41;99091.38;4959536;28;20480;-95
2023/01/16 06:21:20;;;;;;;24.25;13.05;;;;;;;2.19;73.21;99079.06;4939878;28;20121;-96
2023/01/16 06:23:46;;;;;;;27.38;12.20;;;;;;;2.22;72.64;99084.75;4948836;28;20405;-96
2023/01/16 06:26:11;;;;;;;24.15;15.02;;;;;;;2.25;72.08;99074.72;4950814;28;20054;-96
2023/01/16 06:28:37;;;;;;;33.83;14.13;;;;;;;2.25;72.66;99072.84;4965601;28;20039;-92
2023/01/16 06:31:03;;;;;;;20.17;12.00;;;;;;;2.47;72.84;99104.28;4967519;28;20023;-92
2023/01/16 06:33:29;;;;;;;29.50;13.90;;;;;;;2.58;72.42;99079.63;4942307;28;20026;-90
2023/01/16 06:36:15;;;;;;;24.48;13.82;;;;;;;2.68;72.31;99077.25;4948406;28;20485;-96
2023/01/16 06:38:40;;;;;;;35.33;17.33;;;;;;;2.86;72.85;99070.28;4976993;28;20038;-92
2023/01/16 06:41:26;;;;;;;25.10;13.48;;;;;;;3.30;73.14;99089.47;4950169;28;20022;-96
2023/01/16 06:43:51;;;;;;;12.75;8.20;;;;;;;3.35;72.93;99068.34;4946752;28;20034;-95
2023/01/16 06:46:17;;;;;;;21.23;10.77;;;;;;;3.61;72.54;99061.75;4945931;28;20031;-91
2023/01/16 06:48:42;;;;;;;21.33;11.32;;;;;;;3.88;72.00;99070.13;4962774;28;20035;-92
2023/01/16 06:51:17;;;;;;;22.30;12.63;;;;;;;4.08;70.89;99095.59;4947230;28;20488;-96
2023/01/16 06:53:42;;;;;;;105.90;49.58;;;;;;;3.84;69.91;99061.78;4967698;28;20073;-96
2023/01/16 06:59:34;;;;;;;28.65;14.13;;;;;;;3.88;70.92;99055.97;4967554;28;20041;-96
2023/01/16 07:02:14;;;;;;;22.45;13.50;;;;;;;3.92;70.56;99051.81;4950460;28;20030;-96
2023/01/16 07:04:40;;;;;;;22.63;12.23;;;;;;;4.16;70.29;99069.41;4951352;28;20023;-96
2023/01/16 07:07:08;;;;;;;27.45;12.65;;;;;;;4.24;70.37;99057.56;4947209;28;20478;-96
2023/01/16 07:09:33;;;;;;;26.45;13.20;;;;;;;4.40;70.54;99066.69;4930693;29;20046;-96
2023/01/16 07:11:59;;;;;;;21.30;12.73;;;;;;;4.57;69.71;99056.09;4946154;28;20020;-93
2023/01/16 07:22:45;;;;;;;20.40;13.50;;;;;;;4.99;69.20;99043.28;4970635;28;20037;-93
2023/01/16 07:25:19;;;;;;;16.95;10.43;;;;;;;5.24;67.66;99048.25;4962642;28;20034;-96
2023/01/16 07:27:47;;;;;;;20.20;13.77;;;;;;;5.21;68.52;99032.72;4945528;28;20045;-95
2023/01/16 07:30:20;;;;;;;29.67;17.58;;;;;;;5.34;68.32;99036.13;4934771;28;20046;-95
2023/01/16 07:33:01;;;;;;;20.42;14.05;;;;;;;5.38;67.27;99030.06;4965684;28;20027;-96
2023/01/16 07:35:29;;;;;;;20.70;13.15;;;;;;;5.56;67.40;99022.84;4964121;28;20110;-93
2023/01/16 07:38:03;;;;;;;31.92;21.70;;;;;;;5.71;66.93;99028.41;4975030;28;20117;-95
2023/01/16 07:40:51;;;;;;;32.20;22.80;;;;;;;5.61;67.13;98990.88;4932370;29;20494;-96
2023/01/16 07:43:16;;;;;;;25.70;16.30;;;;;;;5.81;67.18;98993.84;4944056;29;20015;-96
2023/01/16 07:46:07;;;;;;;21.77;13.00;;;;;;;5.81;66.69;98985.00;4934724;29;20039;-95
2023/01/16 07:52:27;;;;;;;15.50;9.23;;;;;;;5.91;65.40;98971.78;4958671;29;20034;-96
2023/01/16 07:55:19;;;;;;;;;;;;;;;;;;;;;
2023/01/16 07:57:48;;;;;;;13.32;7.68;;;;;;;6.22;63.71;98964.97;4957853;29;20486;-93
2023/01/16 08:00:18;;;;;;;31.38;15.48;;;;;;;6.24;63.98;98944.13;4945797;29;20568;-94
2023/01/16 08:02:44;;;;;;;13.02;7.80;;;;;;;6.30;64.12;98942.34;4925627;29;20039;-94
2023/01/16 08:05:13;;;;;;;10.82;7.05;;;;;;;6.41;63.58;98953.94;4931037;29;20043;-95
2023/01/16 08:07:59;;;;;;;10.32;5.95;;;;;;;6.42;63.38;98942.19;4923157;29;20122;-96
2023/01/16 08:10:28;;;;;;;13.77;6.88;;;;;;;6.40;62.06;98923.72;4911206;29;20126;-95
2023/01/16 08:12:55;;;;;;;10.95;6.95;;;;;;;6.86;62.12;98947.44;4906220;29;20118;-94
2023/01/16 08:15:24;;;;;;;18.67;9.68;;;;;;;6.85;61.36;98930.56;4922787;29;20054;-96
2023/01/16 08:17:54;;;;;;;10.32;6.20;;;;;;;7.08;61.57;98940.13;4916545;29;20384;-94
2023/01/16 08:20:55;;;;;;;13.48;7.88;;;;;;;7.10;61.61;98953.25;4894041;29;20043;-96
2023/01/16 08:23:23;;;;;;;11.68;5.55;;;;;;;7.04;61.18;98933.66;4913784;29;20028;-96
2023/01/16 08:26:42;;;;;;;10.30;6.13;;;;;;;7.06;61.09;98904.75;4897543;29;20036;-96
2023/01/16 08:32:41;;;;;;;22.25;11.88;;;;;;;7.75;59.32;98934.38;4935084;29;20035;-96
2023/01/16 08:35:19;;;;;;;8.40;5.60;;;;;;;7.73;59.12;98905.16;4944459;29;20063;-96
2023/01/16 08:38:12;;;;;;;14.13;8.00;;;;;;;7.67;58.59;98893.59;4913214;29;20071;-96
2023/01/16 08:55:18;;;;;;;;;;;;;;;;;;;;;
2023/01/16 08:57:29;;;;;;;7.53;4.38;;;;;;;8.28;56.15;98902.94;4958507;28;20498;-95
2023/01/16 09:00:23;;;;;;;;;;;;;;;;;;;;;
2023/01/16 09:03:01;;;;;;;6.95;4.70;;;;;;;8.64;55.76;98909.19;4974090;28;20117;-95
2023/01/16 09:05:45;;;;;;;7.13;4.00;;;;;;;8.69;54.38;98903.84;4969781;28;20066;-95
2023/01/16 09:08:27;;;;;;;6.72;3.80;;;;;;;8.80;54.08;98928.81;4915378;29;20101;-96
2023/01/16 09:14:59;;;;;;;12.55;5.03;;;;;;;8.86;54.56;98882.09;5147054;23;20069;-95
2023/01/16 09:18:11;;;;;;;5.80;3.75;;;;;;;9.10;53.97;98901.13;4976410;28;20444;-92
2023/01/16 09:24:40;;;;;;;8.98;3.63;;;;;;;8.92;54.25;98890.94;4977480;28;19921;-96
2023/01/16 09:27:12;;;;;;;6.32;3.83;;;;;;;8.74;55.33;98878.06;4957152;28;20121;-96
2023/01/16 09:32:51;;;;;;;7.60;4.03;;;;;;;8.82;53.83;98854.19;4981419;28;20031;-96
2023/01/16 09:35:19;;;;;;;5.45;3.85;;;;;;;8.72;54.47;98856.88;4966982;28;20041;-95
2023/01/16 09:37:51;;;;;;;5.78;3.45;;;;;;;8.78;53.62;98852.28;4968377;28;20042;-95
2023/01/16 09:40:27;;;;;;;11.70;4.72;;;;;;;8.86;53.02;98832.94;4975935;28;20038;-96
2023/01/16 09:46:25;;;;;;;4.85;3.22;;;;;;;9.15;52.53;98829.69;4942971;28;20093;-95
2023/01/16 09:49:10;;;;;;;7.30;4.18;;;;;;;8.86;52.26;98833.78;4931410;28;20091;-96
2023/01/16 09:59:51;;;;;;;9.82;4.35;;;;;;;9.04;52.71;98805.53;4998242;28;20078;-96
2023/01/16 10:02:43;;;;;;;10.10;4.38;;;;;;;9.03;52.99;98808.50;4991573;28;20040;-96
2023/01/16 10:05:24;;;;;;;6.85;3.83;;;;;;;9.18;52.29;98804.97;4979121;28;20042;-93
2023/01/16 10:08:18;;;;;;;6.28;3.97;;;;;;;9.17;51.99;98812.25;4973329;28;20039;-96
2023/01/16 10:11:04;;;;;;;11.20;5.55;;;;;;;9.44;51.71;98819.94;4994707;28;20080;-94
2023/01/16 10:14:02;;;;;;;14.13;4.80;;;;;;;9.55;52.00;98827.97;4981617;28;20042;-96
2023/01/16 10:16:45;;;;;;;6.95;4.68;;;;;;;9.68;51.40;98820.09;4995635;28;20165;-96
2023/01/16 10:19:54;;;;;;;8.00;4.53;;;;;;;9.49;51.85;98797.59;4979221;28;20106;-94
2023/01/16 10:22:37;;;;;;;5.65;3.80;;;;;;;9.48;52.24;98802.19;4967260;28;20488;-95
2023/01/16 10:25:32;;;;;;;10.18;4.80;;;;;;;9.58;51.26;98795.94;4989022;28;20469;-96
2023/01/16 10:28:31;;;;;;;7.35;3.72;;;;;;;9.65;51.41;98801.00;4961767;28;20049;-94
2023/01/16 10:31:25;;;;;;;7.10;4.13;;;;;;;9.63;51.06;98792.41;4985585;28;20060;-95
2023/01/16 10:34:11;;;;;;;6.30;3.88;;;;;;;9.48;52.36;98755.69;4981230;28;20030;-96
2023/01/16 10:36:48;;;;;;;6.20;3.80;;;;;;;9.67;51.25;98753.97;4958368;28;20034;-96
2023/01/16 10:39:36;;;;;;;7.93;4.53;;;;;;;9.84;50.14;98742.06;4961300;28;20038;-96
2023/01/16 10:51:56;;;;;;;6.78;3.92;;;;;;;10.19;48.78;98741.00;4999904;28;20049;-95
2023/01/16 10:58:55;;;;;;;;;;;;;;;;;;;;;
2023/01/16 11:01:44;;;;;;;;;;;;;;;;;;;;;
2023/01/16 11:04:47;;;;;;;;;;;;;;;;;;;;;
2023/01/16 11:08:30;;;;;;;;;;;;;;;;;;;;;
2023/01/16 11:20:31;;;;;;;9.88;3.80;;;;;;;10.59;48.06;98736.34;4842697;28;20041;-96
2023/01/16 11:23:18;;;;;;;6.55;4.85;;;;;;;10.82;48.21;98731.28;4949954;28;20536;-96
2023/01/16 11:25:58;;;;;;;9.27;5.60;;;;;;;10.65;48.00;98726.34;4967465;28;20031;-96
2023/01/16 11:28:47;;;;;;;;;;;;;;;;;;;;;
2023/01/16 11:31:26;;;;;;;11.30;6.43;;;;;;;10.59;47.97;98695.97;4970382;28;20110;-94
2023/01/16 11:34:09;;;;;;;8.57;4.65;;;;;;;10.86;47.13;98702.69;4954481;28;20050;-96
2023/01/16 11:37:08;;;;;;;6.20;4.25;;;;;;;10.95;46.56;98714.44;4968560;28;20029;-95
2023/01/16 11:39:37;;;;;;;8.93;4.57;;;;;;;10.92;47.30;98696.16;4950077;28;20027;-94
2023/01/16 11:46:02;;;;;;;7.63;4.18;;;;;;;10.84;47.46;98686.81;4977563;28;20030;-94
2023/01/16 11:47:51;;;;;;;8.35;4.47;;;;;;;11.08;47.17;98680.59;5005942;28;20025;-96
2023/01/16 11:50:32;;;;;;;6.20;4.18;;;;;;;11.23;46.63;98693.91;4970707;28;20030;-95
2023/01/16 11:52:58;;;;;;;10.65;5.78;;;;;;;11.03;46.51;98676.09;4955846;28;20034;-93
2023/01/16 11:55:33;;;;;;;11.70;3.78;;;;;;;10.69;46.93;98674.34;4981363;28;20030;-92
2023/01/16 11:58:53;;;;;;;6.30;3.90;;;;;;;10.54;47.38;98657.53;4984402;28;20053;-94
2023/01/16 12:02:19;;;;;;;5.43;3.67;;;;;;;10.38;47.42;98668.47;4947627;29;20047;-96
2023/01/16 12:08:21;;;;;;;12.65;3.97;;;;;;;10.76;47.14;98673.19;4907275;29;20048;-96
2023/01/16 12:11:29;;;;;;;6.15;3.80;;;;;;;10.41;47.06;98649.06;4924065;29;20041;-96
2023/01/16 12:14:52;;;;;;;5.95;3.80;;;;;;;10.93;47.03;98676.22;4933035;29;20054;-96
2023/01/16 12:17:38;;;;;;;17.08;5.28;;;;;;;10.97;47.58;98671.06;4976693;28;20047;-96
2023/01/16 12:20:22;;;;;;;8.63;3.67;;;;;;;11.11;47.18;98675.44;4948074;29;20027;-96
2023/01/16 12:26:21;;;;;;;8.38;7.47;;;;;;;10.92;47.38;98670.03;4959409;28;20143;-96
2023/01/16 12:32:39;;;;;;;10.07;3.95;;;;;;;10.92;46.42;98639.59;4925487;29;20120;-94
2023/01/16 12:35:31;;;;;;;6.35;3.70;;;;;;;11.11;45.82;98663.88;4935115;29;20533;-95
2023/01/16 12:38:18;;;;;;;10.75;4.80;;;;;;;10.77;46.08;98653.25;4943539;29;20067;-96
2023/01/16 12:44:10;;;;;;;8.27;4.10;;;;;;;10.72;46.67;98657.59;4930004;29;20114;-91
2023/01/16 12:47:18;;;;;;;11.35;5.80;;;;;;;10.92;46.34;98661.94;4946167;29;20081;-95
2023/01/16 12:50:28;;;;;;;6.45;3.70;;;;;;;10.92;45.99;98659.25;4929941;29;20130;-93
2023/01/16 12:56:24;;;;;;;11.40;5.00;;;;;;;11.11;46.17;98661.97;5149511;23;20043;-95
2023/01/16 12:59:02;;;;;;;12.52;4.65;;;;;;;11.02;46.24;98650.25;4965410;28;20072;-96
2023/01/16 13:01:43;;;;;;;11.65;4.72;;;;;;;11.00;46.14;98652.44;4957515;28;20030;-96
2023/01/16 13:04:50;;;;;;;5.37;4.00;;;;;;;10.91;45.71;98638.81;4947906;29;20079;-95
2023/01/16 13:08:05;;;;;;;;;;;;;;;;;;;;;
2023/01/16 13:27:54;;;;;;;6.63;4.53;;;;;;;10.66;47.00;98594.13;4692606;23;20050;-96
2023/01/16 13:30:19;;;;;;;8.73;6.95;;;;;;;10.57;47.06;98609.31;4962089;28;20074;-95
2023/01/16 13:33:09;;;;;;;8.73;5.53;;;;;;;10.48;47.28;98590.31;4980019;28;20030;-96
2023/01/16 13:36:01;;;;;;;10.45;7.97;;;;;;;10.72;47.65;98616.41;4993377;23;20054;-96
2023/01/16 13:38:47;;;;;;;9.50;5.22;;;;;;;10.55;47.79;98587.28;5004300;28;20034;-96
2023/01/16 13:41:43;;;;;;;7.30;4.53;;;;;;;10.67;47.96;98611.91;5004662;28;20025;-96
2023/01/16 13:47:24;;;;;;;6.05;4.15;;;;;;;10.76;47.75;98608.56;4956797;28;20049;-94
2023/01/16 13:49:54;;;;;;;7.03;4.20;;;;;;;10.54;48.46;98572.19;4964285;28;20026;-96
2023/01/16 13:56:15;;;;;;;13.57;6.78;;;;;;;10.47;48.76;98563.69;4973049;28;20047;-96
2023/01/16 13:59:07;;;;;;;7.80;5.07;;;;;;;10.47;48.23;98561.78;4934266;29;20048;-96
2023/01/16 14:01:57;;;;;;;13.63;6.63;;;;;;;10.46;48.71;98583.63;4932545;29;20039;-96
2023/01/16 14:04:23;;;;;;;16.23;5.93;;;;;;;10.47;48.93;98577.13;4934321;29;20043;-96
2023/01/16 14:10:06;;;;;;;7.88;4.70;;;;;;;10.23;48.59;98558.25;4902472;29;20046;-96
2023/01/16 14:13:12;;;;;;;7.03;4.50;;;;;;;10.32;49.07;98576.22;4868041;29;20043;-96
2023/01/16 14:19:15;;;;;;;26.42;13.25;;;;;;;10.18;49.35;98545.69;4883544;29;20045;-95
2023/01/16 14:24:27;;;;;;;10.18;5.90;;;;;;;9.86;49.33;98541.72;4972485;23;20039;-96
2023/01/16 14:26:58;;;;;;;12.77;7.03;;;;;;;10.03;49.34;98567.38;4926152;29;20038;-96
2023/01/16 14:29:28;;;;;;;11.93;8.02;;;;;;;9.99;50.42;98556.38;4915220;28;20027;-95
2023/01/16 14:32:22;;;;;;;12.30;8.10;;;;;;;10.15;49.65;98578.53;4909661;29;20047;-94
2023/01/16 14:35:18;;;;;;;9.02;5.85;;;;;;;9.97;49.47;98538.94;4937852;28;20070;-96
2023/01/16 14:37:56;;;;;;;9.13;5.53;;;;;;;9.93;49.36;98551.34;4943326;28;20035;-96
2023/01/16 14:55:12;;;;;;;11.25;7.38;;;;;;;9.95;50.72;98546.47;4927211;28;20091;-93